MST,Max TemperatureF,Mean TemperatureF,Min TemperatureF,Max Dew PointF,MeanDew PointF,Min DewpointF,Max Humidity, Mean Humidity, Min Humidity, Max Sea Level PressureIn, Mean Sea Level PressureIn, Min Sea Level PressureIn, Max VisibilityMiles, Mean VisibilityMiles, Min VisibilityMiles, Max Wind SpeedMPH, Mean Wind SpeedMPH, Max Gust SpeedMPH,PrecipitationIn, CloudCover, Events, WindDirDegrees
2012-10-1,102,88,75,39,32,27,19,13,10,29.95,29.90,29.83,20,20,20,21,12,17,0.00,0,,324
2012-10-2,100,86,73,36,33,28,19,14,8,29.98,29.89,29.80,,,,12,7,,0.00,0,,351
2012-10-3,98,86,73,39,35,32,22,15,10,29.96,29.92,29.88,20,20,20,9,8,,0.00,2,,199
2012-10-4,95,85,75,41,39,37,25,20,14,30.06,30.02,29.98,,,,13,9,,0.00,4,,144
2012-10-5,91,81,73,39,38,36,29,21,14,30.03,29.98,29.91,20,20,20,10,9,,0.00,3,,140
2012-10-6,87,78,69,43,39,34,27,22,18,29.93,29.87,29.81,20,20,20,9,8,,0.00,6,,283
2012-10-7,89,79,69,43,40,37,31,23,17,29.92,29.87,29.82,20,20,20,8,7,,0.00,3,,20
2012-10-8,91,80,68,43,41,39,35,22,17,29.94,29.88,29.83,20,20,20,12,8,,0.00,1,,223
2012-10-9,91,81,71,50,46,41,34,26,21,29.97,29.90,29.84,,,,9,7,,0.00,1,,206
2012-10-10,91,80,69,50,42,36,46,26,15,29.98,29.88,29.80,20,20,20,12,8,,0.00,1,,135
2012-10-11,86,78,69,50,46,41,49,34,26,29.90,29.85,29.80,20,20,20,12,8,,0.00,6,,30
2012-10-12,75,71,71,41,38,36,33,28,24,30.06,30.05,30.03,,,,9,9,,0.00,4,,275
2012-10-13,71,63,55,43,41,37,63,48,29,30.16,30.14,30.11,20,20,20,9,8,,0.00,0,,358
2012-10-14,91,76,60,41,38,34,48,26,13,30.09,29.99,29.92,20,20,20,12,7,,0.00,0,,187
2012-10-15,93,81,69,37,32,25,28,16,9,29.97,29.91,29.84,20,20,20,16,10,,0.00,1,,326
2012-10-16,89,78,68,36,34,30,28,17,12,29.90,29.82,29.75,20,20,20,9,7,,0.00,1,,233
2012-10-17,89,76,64,43,36,34,34,20,15,29.90,29.86,29.82,20,20,20,10,6,,0.00,2,,228
2012-10-18,84,74,69,59,49,34,51,39,27,30.06,30.02,29.98,20,20,20,12,8,,0.00,3,,318
2012-10-19,89,74,66,43,41,37,43,30,16,29.96,29.92,29.81,,,,13,9,,0.00,0,,1
2012-10-20,87,76,66,37,34,32,30,19,14,29.83,29.79,29.75,20,20,20,10,8,,0.00,2,,210
2012-10-21,86,78,69,46,43,41,35,30,22,29.86,29.82,29.78,20,20,20,15,11,,0.00,2,,150
2012-10-22,82,74,66,55,51,48,56,42,30,29.95,29.89,29.85,20,20,20,12,9,,0.00,1,,197
2012-10-23,82,73,64,52,48,45,56,39,28,29.92,29.86,29.80,,,,9,7,,0.00,4,,242
2012-10-24,80,71,62,46,38,28,52,31,16,29.92,29.89,29.86,20,20,20,9,6,,0.00,1,,270
2012-10-25,80,68,55,30,18,5,38,17,6,30.03,29.97,29.90,20,20,20,12,6,,0.00,0,,300
2012-10-26,80,69,60,50,21,10,46,19,7,30.06,30.02,29.93,,,,17,15,23,0.00,0,,12
2012-10-27,82,73,64,30,26,19,18,16,12,29.99,29.92,29.86,20,20,20,17,12,,0.00,1,,319
2012-10-28,87,74,62,28,23,18,19,13,9,30.01,29.95,29.92,20,20,20,12,9,,0.00,0,,256
2012-10-29,87,74,60,30,26,21,22,15,11,30.10,30.04,29.99,,,,9,8,,0.00,0,,296
2012-10-30,86,73,60,30,28,25,25,17,12,30.07,30.00,29.94,20,20,20,12,7,,0.00,0,,288
2012-10-31,84,70,57,32,26,21,33,19,10,30.03,29.98,29.91,20,20,20,9,7,,0.00,2,,325